createdAt,value
2017-09-08T00:00:38.723Z,93.35
2017-09-08T00:01:38.706Z,93.64
2017-09-08T00:02:38.374Z,93.45
2017-09-08T00:03:38.665Z,93.55
2017-09-08T00:04:38.636Z,93.64
2017-09-08T00:05:38.615Z,93.45
2017-09-08T00:06:38.598Z,93.64
2017-09-08T00:07:38.626Z,93.07
2017-09-08T00:08:38.545Z,93.35
2017-09-08T00:09:38.527Z,93.64
2017-09-08T00:10:38.503Z,93.26
2017-09-08T00:11:38.482Z,93.26
2017-09-08T00:12:38.472Z,93.26
2017-09-08T00:13:38.441Z,93.35
2017-09-08T00:14:38.426Z,93.26
2017-09-08T00:15:38.402Z,93.26
2017-09-08T00:16:38.380Z,93.16
2017-09-08T00:17:38.354Z,93.07
2017-09-08T00:18:38.333Z,93.35
2017-09-08T00:19:38.315Z,93.26
2017-09-08T00:20:38.289Z,93.35
2017-09-08T00:21:38.267Z,93.16
2017-09-08T00:22:38.252Z,93.26
2017-09-08T00:23:37.917Z,93.26
2017-09-08T00:24:38.253Z,93.07
2017-09-08T00:25:38.187Z,93.35
2017-09-08T00:26:38.159Z,93.16
2017-09-08T00:27:38.138Z,93.07
2017-09-08T00:28:38.123Z,93.07
2017-09-08T00:29:38.096Z,93.45
2017-09-08T00:30:38.077Z,93.16
2017-09-08T00:31:38.051Z,93.35
2017-09-08T00:32:38.036Z,92.88
2017-09-08T00:33:38.013Z,92.69
2017-09-08T00:34:37.989Z,93.26
2017-09-08T00:35:37.967Z,93.26
2017-09-08T00:36:37.943Z,93.35
2017-09-08T00:37:37.922Z,92.88
2017-09-08T00:38:37.957Z,93.26
2017-09-08T00:39:37.883Z,92.78
2017-09-08T00:40:37.859Z,93.26
2017-09-08T00:41:37.838Z,93.16
2017-09-08T00:42:37.812Z,93.16
2017-09-08T00:43:37.894Z,93.45
2017-09-08T00:44:37.771Z,93.07
2017-09-08T00:45:37.750Z,93.45
2017-09-08T00:46:37.727Z,93.45
2017-09-08T00:47:37.706Z,93.64
2017-09-08T00:48:37.693Z,93.35
2017-09-08T00:49:37.719Z,93.26
2017-09-08T00:50:37.644Z,92.88
2017-09-08T00:51:37.619Z,93.84
2017-09-08T00:52:37.601Z,93.84
2017-09-08T00:53:37.578Z,93.64
2017-09-08T00:54:37.558Z,93.55
2017-09-08T00:55:37.533Z,93.45
2017-09-08T00:56:37.203Z,93.74
2017-09-08T00:57:37.489Z,94.21
2017-09-08T00:58:37.470Z,93.93
2017-09-08T00:59:37.450Z,94.02
2017-09-08T01:00:37.428Z,93.84
2017-09-08T01:01:37.404Z,93.84
2017-09-08T01:02:37.382Z,93.74
2017-09-08T01:03:37.406Z,94.21
2017-09-08T01:04:37.389Z,94.98
2017-09-08T01:05:37.318Z,94.79
2017-09-08T01:06:37.295Z,94.46
2017-09-08T01:07:37.273Z,94.6
2017-09-08T01:08:37.255Z,94.65
2017-09-08T01:09:37.229Z,94.36
2017-09-08T01:10:37.210Z,94.55
2017-09-08T01:11:37.187Z,94.65
2017-09-08T01:12:37.161Z,94.65
2017-09-08T01:13:37.142Z,95.12
2017-09-08T01:14:37.123Z,94.55
2017-09-08T01:15:37.098Z,95.12
2017-09-08T01:16:37.079Z,95.03
2017-09-08T01:17:37.055Z,94.65
2017-09-08T01:18:37.038Z,95.32
2017-09-08T01:19:37.017Z,95.32
2017-09-08T01:20:36.990Z,95.12
2017-09-08T01:21:36.968Z,95.61
2017-09-08T01:22:36.948Z,95.61
2017-09-08T01:23:36.924Z,95.7
2017-09-08T01:24:36.899Z,95.41
2017-09-08T01:25:36.881Z,95.89
2017-09-08T01:26:36.858Z,95.7
2017-09-08T01:27:36.849Z,96.27
2017-09-08T01:28:36.821Z,95.94
2017-09-08T01:29:36.790Z,95.98
2017-09-08T01:30:36.776Z,96.18
2017-09-08T01:31:36.748Z,96.08
2017-09-08T01:32:36.725Z,96.42
2017-09-08T01:33:36.707Z,96.47
2017-09-08T01:34:36.686Z,96.18
2017-09-08T01:35:36.660Z,96.27
2017-09-08T01:36:36.640Z,96.18
2017-09-08T01:37:36.616Z,96.84
2017-09-08T01:38:36.593Z,96.66
2017-09-08T01:39:36.572Z,95.98
2017-09-08T01:40:36.550Z,96.75
2017-09-08T01:41:36.832Z,96.61
2017-09-08T01:42:36.505Z,96.84
2017-09-08T01:43:36.490Z,96.8
2017-09-08T01:44:36.463Z,96.99
2017-09-08T01:45:36.439Z,96.89
2017-09-08T01:46:36.420Z,97.37
2017-09-08T01:47:36.395Z,97.08
2017-09-08T01:48:36.414Z,97.08
2017-09-08T01:49:36.351Z,97.08
2017-09-08T01:50:36.335Z,96.89
2017-09-08T01:51:36.311Z,96.61
2017-09-08T01:52:36.337Z,97.47
2017-09-08T01:53:36.268Z,97.75
2017-09-08T01:54:36.247Z,97.75
2017-09-08T01:55:36.267Z,97.66
2017-09-08T01:56:36.196Z,97.75
2017-09-08T01:57:36.178Z,97.47
2017-09-08T01:58:36.153Z,97.37
2017-09-08T01:59:36.132Z,97.18
2017-09-08T02:00:36.113Z,97.08
2017-09-08T02:01:36.084Z,97.37
2017-09-08T02:02:36.068Z,97.66
2017-09-08T02:03:36.046Z,97.66
2017-09-08T02:04:36.022Z,97.66
2017-09-08T02:05:35.998Z,97.85
2017-09-08T02:06:35.976Z,97.66
2017-09-08T02:07:35.962Z,97.85
2017-09-08T02:08:35.943Z,97.66
2017-09-08T02:09:35.912Z,97.66
2017-09-08T02:10:35.891Z,97.66
2017-09-08T02:11:35.562Z,97.94
2017-09-08T02:12:35.842Z,97.85
2017-09-08T02:13:35.519Z,97.85
2017-09-08T02:14:35.808Z,97.85
2017-09-08T02:15:35.783Z,97.85
2017-09-08T02:16:35.759Z,97.56
2017-09-08T02:17:35.734Z,97.47
2017-09-08T02:18:35.714Z,98.04
2017-09-08T02:19:35.692Z,98.13
2017-09-08T02:20:35.669Z,98.33
2017-09-08T02:21:35.654Z,97.85
2017-09-08T02:22:35.624Z,97.85
2017-09-08T02:23:35.601Z,97.94
2017-09-08T02:24:35.584Z,98.04
2017-09-08T02:25:35.567Z,98.23
2017-09-08T02:26:35.588Z,98.04
2017-09-08T02:27:35.518Z,98.13
2017-09-08T02:28:35.493Z,97.94
2017-09-08T02:29:35.474Z,98.04
2017-09-08T02:30:35.451Z,98.33
2017-09-08T02:31:35.427Z,98.23
2017-09-08T02:32:35.404Z,98.23
2017-09-08T02:33:35.388Z,98.13
2017-09-08T02:34:35.413Z,98.04
2017-09-08T02:35:35.343Z,98.13
2017-09-08T02:36:35.320Z,98.33
2017-09-08T02:37:35.296Z,97.94
2017-09-08T02:38:35.275Z,98.04
2017-09-08T02:39:35.252Z,97.94
2017-09-08T02:40:35.228Z,98.04
2017-09-08T02:41:35.213Z,98.33
2017-09-08T02:42:35.186Z,98.52
2017-09-08T02:43:35.170Z,98.61
2017-09-08T02:44:35.142Z,98.52
2017-09-08T02:45:35.177Z,98.52
2017-09-08T02:46:35.105Z,98.33
2017-09-08T02:47:35.074Z,98.52
2017-09-08T02:48:35.055Z,98.33
2017-09-08T02:49:35.031Z,98.61
2017-09-08T02:50:35.010Z,98.33
2017-09-08T02:51:34.989Z,98.52
2017-09-08T02:52:34.970Z,98.8
2017-09-08T02:53:34.947Z,98.8
2017-09-08T02:54:34.924Z,98.23
2017-09-08T02:55:34.900Z,98.23
2017-09-08T02:56:34.879Z,98.52
2017-09-08T02:57:34.856Z,98.71
2017-09-08T02:58:34.840Z,98.33
2017-09-08T02:59:34.818Z,98.33
2017-09-08T03:00:34.790Z,98.42
2017-09-08T03:01:34.459Z,98.42
2017-09-08T03:02:34.746Z,98.42
2017-09-08T03:03:34.725Z,98.33
2017-09-08T03:04:34.705Z,98.23
2017-09-08T03:05:34.690Z,98.61
2017-09-08T03:06:34.662Z,98.61
2017-09-08T03:07:34.636Z,98.33
2017-09-08T03:08:34.617Z,98.33
2017-09-08T03:09:34.591Z,98.52
2017-09-08T03:10:34.570Z,98.61
2017-09-08T03:11:34.551Z,98.42
2017-09-08T03:12:34.782Z,98.42
2017-09-08T03:13:34.505Z,98.8
2017-09-08T03:14:34.491Z,98.52
2017-09-08T03:15:34.464Z,98.33
2017-09-08T03:16:34.439Z,98.71
2017-09-08T03:17:34.418Z,98.8
2017-09-08T03:18:34.446Z,98.61
2017-09-08T03:19:34.375Z,98.52
2017-09-08T03:20:34.352Z,98.52
2017-09-08T03:21:34.329Z,98.13
2017-09-08T03:22:34.308Z,98.52
2017-09-08T03:23:34.289Z,98.13
2017-09-08T03:24:33.956Z,97.94
2017-09-08T03:25:34.242Z,98.04
2017-09-08T03:26:34.219Z,98.04
2017-09-08T03:27:33.889Z,98.23
2017-09-08T03:28:34.217Z,98.33
2017-09-08T03:29:34.157Z,98.33
2017-09-08T03:30:34.176Z,98.33
2017-09-08T03:31:34.114Z,98.33
2017-09-08T03:32:34.089Z,98.13
2017-09-08T03:33:34.068Z,98.13
2017-09-08T03:34:34.043Z,97.75
2017-09-08T03:35:34.023Z,98.04
2017-09-08T03:36:34.049Z,97.94
2017-09-08T03:37:33.979Z,97.94
2017-09-08T03:38:33.957Z,97.85
2017-09-08T03:39:33.936Z,97.85
2017-09-08T03:40:33.914Z,97.85
2017-09-08T03:41:33.890Z,97.99
2017-09-08T03:42:33.874Z,97.9
2017-09-08T03:43:33.850Z,97.75
2017-09-08T03:44:33.824Z,97.9
2017-09-08T03:45:33.805Z,97.8
2017-09-08T03:46:33.784Z,97.99
2017-09-08T03:47:33.760Z,97.9
2017-09-08T03:48:33.738Z,97.61
2017-09-08T03:49:33.717Z,97.42
2017-09-08T03:50:33.695Z,97.52
2017-09-08T03:51:33.672Z,97.42
2017-09-08T03:52:33.649Z,97.61
2017-09-08T03:53:33.627Z,97.52
2017-09-08T03:54:33.609Z,97.52
2017-09-08T03:55:33.583Z,97.8
2017-09-08T03:56:33.562Z,97.61
2017-09-08T03:57:33.539Z,97.8
2017-09-08T03:58:33.521Z,97.8
2017-09-08T03:59:33.499Z,97.8
2017-09-08T04:00:33.473Z,97.99
2017-09-08T04:01:33.450Z,97.99
2017-09-08T04:02:33.431Z,97.8
2017-09-08T04:03:33.410Z,97.8
2017-09-08T04:04:33.386Z,97.33
2017-09-08T04:05:33.368Z,97.33
2017-09-08T04:06:33.349Z,97.23
2017-09-08T04:07:33.319Z,96.84
2017-09-08T04:08:33.300Z,96.66
2017-09-08T04:09:33.280Z,96.66
2017-09-08T04:10:33.254Z,97.04
2017-09-08T04:11:33.234Z,97.04
2017-09-08T04:12:33.234Z,97.23
2017-09-08T04:13:33.195Z,97.04
2017-09-08T04:14:33.171Z,97.33
2017-09-08T04:15:33.149Z,97.04
2017-09-08T04:16:33.161Z,97.13
2017-09-08T04:17:33.106Z,97.13
2017-09-08T04:18:33.086Z,97.04
2017-09-08T04:19:33.066Z,97.13
2017-09-08T04:20:33.046Z,97.04
2017-09-08T04:21:33.018Z,97.04
2017-09-08T04:22:32.994Z,97.04
2017-09-08T04:23:32.978Z,97.23
2017-09-08T04:24:32.954Z,97.42
2017-09-08T04:25:32.929Z,97.42
2017-09-08T04:26:32.918Z,97.42
2017-09-08T04:27:32.938Z,97.42
2017-09-08T04:28:32.863Z,97.42
2017-09-08T04:29:32.842Z,97.13
2017-09-08T04:30:32.874Z,97.42
2017-09-08T04:31:32.796Z,97.13
2017-09-08T04:32:32.772Z,97.04
2017-09-08T04:33:32.759Z,96.94
2017-09-08T04:34:32.734Z,96.56
2017-09-08T04:35:32.757Z,96.84
2017-09-08T04:36:32.687Z,96.84
2017-09-08T04:37:32.668Z,96.56
2017-09-08T04:38:32.643Z,96.84
2017-09-08T04:39:32.624Z,96.84
2017-09-08T04:40:32.601Z,97.04
2017-09-08T04:41:32.577Z,96.84
2017-09-08T04:42:32.566Z,97.13
2017-09-08T04:43:32.535Z,96.94
2017-09-08T04:44:32.526Z,97.04
2017-09-08T04:45:32.184Z,97.04
2017-09-08T04:46:32.465Z,96.84
2017-09-08T04:47:32.456Z,97.13
2017-09-08T04:48:32.426Z,97.13
2017-09-08T04:49:32.453Z,97.04
2017-09-08T04:50:32.382Z,96.66
2017-09-08T04:51:32.361Z,97.04
2017-09-08T04:52:32.338Z,96.75
2017-09-08T04:53:32.381Z,96.66
2017-09-08T04:54:32.297Z,96.66
2017-09-08T04:55:31.965Z,97.13
2017-09-08T04:56:32.249Z,97.52
2017-09-08T04:57:31.923Z,97.61
2017-09-08T04:58:32.207Z,97.42
2017-09-08T04:59:32.185Z,97.42
2017-09-08T05:00:32.164Z,97.23
2017-09-08T05:01:32.143Z,97.23
2017-09-08T05:02:32.121Z,96.94
2017-09-08T05:03:32.105Z,97.04
2017-09-08T05:04:32.079Z,97.04
2017-09-08T05:05:32.052Z,96.75
2017-09-08T05:06:32.033Z,96.84
2017-09-08T05:07:32.009Z,97.13
2017-09-08T05:08:31.988Z,97.23
2017-09-08T05:09:31.965Z,97.33
2017-09-08T05:10:31.948Z,97.13
2017-09-08T05:11:31.927Z,97.13
2017-09-08T05:12:31.899Z,97.13
2017-09-08T05:13:31.876Z,97.04
2017-09-08T05:14:31.552Z,97.23
2017-09-08T05:15:31.839Z,97.8
2017-09-08T05:16:31.808Z,97.61
2017-09-08T05:17:31.792Z,97.61
2017-09-08T05:18:31.772Z,97.61
2017-09-08T05:19:31.743Z,97.8
2017-09-08T05:20:31.726Z,97.42
2017-09-08T05:21:31.703Z,97.42
2017-09-08T05:22:31.680Z,97.42
2017-09-08T05:23:31.672Z,97.52
2017-09-08T05:24:31.636Z,97.42
2017-09-08T05:25:31.669Z,97.52
2017-09-08T05:26:31.843Z,97.52
2017-09-08T05:27:31.568Z,97.42
2017-09-08T05:28:31.555Z,97.52
2017-09-08T05:29:31.523Z,97.42
2017-09-08T05:30:31.510Z,97.42
2017-09-08T05:31:31.484Z,97.61
2017-09-08T05:32:31.458Z,97.52
2017-09-08T05:33:31.438Z,97.42
2017-09-08T05:34:31.423Z,97.61
2017-09-08T05:35:31.394Z,97.42
2017-09-08T05:36:31.372Z,97.52
2017-09-08T05:37:31.351Z,97.8
2017-09-08T05:38:31.334Z,97.42
2017-09-08T05:39:31.314Z,97.23
2017-09-08T05:40:31.284Z,97.23
2017-09-08T05:41:31.264Z,97.23
2017-09-08T05:42:31.239Z,97.42
2017-09-08T05:43:31.218Z,97.61
2017-09-08T05:44:31.248Z,97.42
2017-09-08T05:45:31.175Z,97.52
2017-09-08T05:46:31.151Z,97.42
2017-09-08T05:47:31.135Z,97.8
2017-09-08T05:48:31.110Z,97.8
2017-09-08T05:49:31.086Z,97.61
2017-09-08T05:50:31.068Z,97.8
2017-09-08T05:51:30.749Z,97.42
2017-09-08T05:52:31.029Z,97.33
2017-09-08T05:53:31.002Z,97.52
2017-09-08T05:54:30.673Z,97.52
2017-09-08T05:55:31.011Z,97.52
2017-09-08T05:56:30.936Z,97.8
2017-09-08T05:57:30.633Z,97.42
2017-09-08T05:58:30.889Z,97.42
2017-09-08T05:59:30.872Z,97.71
2017-09-08T06:00:30.856Z,97.9
2017-09-08T06:01:30.828Z,97.71
2017-09-08T06:02:30.805Z,97.9
2017-09-08T06:03:30.831Z,97.8
2017-09-08T06:04:30.762Z,97.9
2017-09-08T06:05:30.787Z,97.9
2017-09-08T06:06:30.719Z,97.9
2017-09-08T06:07:30.693Z,97.8
2017-09-08T06:08:30.670Z,97.8
2017-09-08T06:09:30.650Z,97.9
2017-09-08T06:10:30.632Z,97.99
2017-09-08T06:11:30.606Z,97.99
2017-09-08T06:12:30.583Z,98.09
2017-09-08T06:13:30.563Z,98.09
2017-09-08T06:14:30.540Z,97.9
2017-09-08T06:15:30.517Z,97.99
2017-09-08T06:16:30.188Z,98.09
2017-09-08T06:17:30.485Z,98.09
2017-09-08T06:18:30.454Z,97.99
2017-09-08T06:19:30.432Z,97.99
2017-09-08T06:20:30.411Z,97.9
2017-09-08T06:21:30.385Z,97.99
2017-09-08T06:22:30.366Z,97.99
2017-09-08T06:23:30.339Z,97.99
2017-09-08T06:24:30.322Z,97.9
2017-09-08T06:25:30.297Z,97.71
2017-09-08T06:26:30.282Z,97.8
2017-09-08T06:27:30.254Z,97.8
2017-09-08T06:28:30.233Z,97.71
2017-09-08T06:29:30.215Z,97.71
2017-09-08T06:30:30.193Z,97.71
2017-09-08T06:31:30.171Z,97.52
2017-09-08T06:32:30.198Z,97.47
2017-09-08T06:33:29.847Z,97.75
2017-09-08T06:34:30.121Z,97.66
2017-09-08T06:35:29.774Z,97.85
2017-09-08T06:36:30.062Z,97.37
2017-09-08T06:37:30.036Z,96.8
2017-09-08T06:38:30.021Z,97.28
2017-09-08T06:39:29.992Z,97.18
2017-09-08T06:40:29.971Z,97.08
2017-09-08T06:41:29.951Z,97.37
2017-09-08T06:42:29.930Z,97.28
2017-09-08T06:43:29.907Z,97.08
2017-09-08T06:44:29.885Z,97.47
2017-09-08T06:45:29.867Z,97.56
2017-09-08T06:46:29.843Z,97.56
2017-09-08T06:47:29.830Z,97.28
2017-09-08T06:48:29.804Z,96.8
2017-09-08T06:49:29.828Z,97.08
2017-09-08T06:50:29.755Z,97.08
2017-09-08T06:51:29.741Z,97.08
2017-09-08T06:52:29.708Z,97.08
2017-09-08T06:53:29.706Z,96.8
2017-09-08T06:54:29.679Z,96.51
2017-09-08T06:55:29.648Z,97.18
2017-09-08T06:56:29.625Z,96.22
2017-09-08T06:57:29.600Z,96.61
2017-09-08T06:58:29.584Z,96.7
2017-09-08T06:59:29.561Z,96.7
2017-09-08T07:00:29.283Z,96.7
2017-09-08T07:01:29.521Z,96.7
2017-09-08T07:02:29.496Z,96.61
2017-09-08T07:03:29.628Z,96.7
2017-09-08T07:04:29.455Z,96.42
2017-09-08T07:05:29.431Z,96.32
2017-09-08T07:06:29.411Z,96.61
2017-09-08T07:07:29.077Z,96.22
2017-09-08T07:08:29.378Z,96.61
2017-09-08T07:09:29.345Z,96.7
2017-09-08T07:10:29.320Z,96.7
2017-09-08T07:11:29.300Z,96.8
2017-09-08T07:12:28.972Z,96.32
2017-09-08T07:13:29.257Z,96.32
2017-09-08T07:14:29.237Z,96.32
2017-09-08T07:15:29.213Z,96.42
2017-09-08T07:16:29.194Z,96.32
2017-09-08T07:17:29.175Z,96.51
2017-09-08T07:18:29.162Z,96.42
2017-09-08T07:19:29.131Z,96.51
2017-09-08T07:20:29.117Z,96.42
2017-09-08T07:21:29.087Z,96.51
2017-09-08T07:22:29.069Z,96.61
2017-09-08T07:23:28.737Z,96.66
2017-09-08T07:24:29.027Z,96.42
2017-09-08T07:25:29.011Z,96.47
2017-09-08T07:26:28.982Z,96.84
2017-09-08T07:27:28.957Z,96.18
2017-09-08T07:28:28.991Z,96.08
2017-09-08T07:29:28.912Z,96.08
2017-09-08T07:30:28.891Z,96.08
2017-09-08T07:31:28.873Z,95.79
2017-09-08T07:32:28.856Z,95.89
2017-09-08T07:33:28.828Z,96.08
2017-09-08T07:34:28.808Z,95.79
2017-09-08T07:35:28.785Z,95.61
2017-09-08T07:36:28.702Z,95.79
2017-09-08T07:37:28.790Z,95.98
2017-09-08T07:38:28.763Z,96.08
2017-09-08T07:39:28.695Z,96.08
2017-09-08T07:40:28.673Z,95.89
2017-09-08T07:41:28.660Z,96.08
2017-09-08T07:42:28.635Z,96.08
2017-09-08T07:43:28.612Z,95.98
2017-09-08T07:44:28.590Z,96.18
2017-09-08T07:45:28.573Z,95.51
2017-09-08T07:46:28.396Z,95.61
2017-09-08T07:47:28.523Z,95.51
2017-09-08T07:48:28.505Z,95.79
2017-09-08T07:49:28.484Z,95.51
2017-09-08T07:50:28.465Z,95.61
2017-09-08T07:51:28.444Z,95.89
2017-09-08T07:52:28.416Z,95.7
2017-09-08T07:53:28.393Z,95.31
2017-09-08T07:54:28.534Z,95.7
2017-09-08T07:55:28.553Z,95.22
2017-09-08T07:56:28.329Z,95.31
2017-09-08T07:57:28.322Z,95.51
2017-09-08T07:58:28.297Z,95.22
2017-09-08T07:59:28.268Z,95.51
2017-09-08T08:00:28.247Z,95.12
2017-09-08T08:01:28.218Z,95.31
2017-09-08T08:02:27.898Z,95.61
2017-09-08T08:03:28.182Z,95.56
2017-09-08T08:04:28.258Z,95.89
2017-09-08T08:05:28.137Z,95.22
2017-09-08T08:06:28.130Z,95.75
2017-09-08T08:07:28.098Z,95.46
2017-09-08T08:08:28.072Z,95.7
2017-09-08T08:09:28.052Z,94.98
2017-09-08T08:10:28.033Z,95.65
2017-09-08T08:11:28.050Z,95.61
2017-09-08T08:12:27.988Z,95.56
2017-09-08T08:13:27.965Z,95.94
2017-09-08T08:14:27.945Z,95.75
2017-09-08T08:15:27.927Z,95.27
2017-09-08T08:16:27.909Z,94.93
2017-09-08T08:17:27.884Z,95.84
2017-09-08T08:18:27.863Z,95.56
2017-09-08T08:19:27.837Z,95.56
2017-09-08T08:20:27.820Z,95.36
2017-09-08T08:21:27.794Z,95.56
2017-09-08T08:22:27.780Z,94.89
2017-09-08T08:23:27.758Z,94.79
2017-09-08T08:24:27.731Z,94.98
2017-09-08T08:25:27.714Z,94.98
2017-09-08T08:26:27.689Z,94.98
2017-09-08T08:27:27.716Z,94.89
2017-09-08T08:28:27.649Z,94.98
2017-09-08T08:29:27.723Z,94.98
2017-09-08T08:30:27.605Z,94.98
2017-09-08T08:31:27.581Z,95.07
2017-09-08T08:32:27.562Z,94.98
2017-09-08T08:33:27.539Z,94.98
2017-09-08T08:34:27.518Z,95.17
2017-09-08T08:35:27.501Z,94.98
2017-09-08T08:36:27.419Z,95.36
2017-09-08T08:37:27.458Z,95.17
2017-09-08T08:38:27.690Z,95.07
2017-09-08T08:39:27.414Z,94.98
2017-09-08T08:40:27.545Z,94.69
2017-09-08T08:41:27.366Z,94.79
2017-09-08T08:42:27.042Z,94.79
2017-09-08T08:43:27.329Z,94.69
2017-09-08T08:44:27.310Z,94.6
2017-09-08T08:45:27.341Z,94.93
2017-09-08T08:46:27.365Z,94.79
2017-09-08T08:47:27.242Z,94.79
2017-09-08T08:48:27.223Z,94.4
2017-09-08T08:49:27.211Z,94.21
2017-09-08T08:50:27.179Z,94.35
2017-09-08T08:51:27.156Z,94.07
2017-09-08T08:52:27.131Z,94.26
2017-09-08T08:53:27.118Z,94.35
2017-09-08T08:54:27.095Z,94.64
2017-09-08T08:55:27.076Z,93.98
2017-09-08T08:56:26.895Z,94.17
2017-09-08T08:57:27.032Z,93.78
2017-09-08T08:58:27.114Z,94.17
2017-09-08T08:59:26.985Z,93.78
2017-09-08T09:00:26.968Z,94.07
2017-09-08T09:01:26.948Z,93.78
2017-09-08T09:02:26.926Z,93.78
2017-09-08T09:03:27.056Z,93.98
2017-09-08T09:04:26.989Z,93.88
2017-09-08T09:05:26.872Z,94.17
2017-09-08T09:06:26.845Z,93.78
2017-09-08T09:07:26.870Z,93.59
2017-09-08T09:08:26.800Z,93.59
2017-09-08T09:09:26.785Z,93.98
2017-09-08T09:10:26.757Z,93.78
2017-09-08T09:11:26.738Z,93.88
2017-09-08T09:12:26.722Z,93.88
2017-09-08T09:13:26.701Z,94.07
2017-09-08T09:14:26.367Z,94.07
2017-09-08T09:15:26.656Z,93.78
2017-09-08T09:16:26.329Z,93.78
2017-09-08T09:17:26.618Z,93.49
2017-09-08T09:18:26.791Z,93.4
2017-09-08T09:19:26.579Z,93.4
2017-09-08T09:20:26.700Z,93.3
2017-09-08T09:21:26.527Z,93.4
2017-09-08T09:22:26.510Z,93.44
2017-09-08T09:23:26.488Z,93.4
2017-09-08T09:24:26.517Z,93.44
2017-09-08T09:25:26.442Z,93.98
2017-09-08T09:26:26.423Z,94.07
2017-09-08T09:27:26.407Z,94.17
2017-09-08T09:28:26.382Z,94.07
2017-09-08T09:29:26.522Z,94.17
2017-09-08T09:30:26.389Z,94.64
2017-09-08T09:31:26.472Z,94.74
2017-09-08T09:32:26.297Z,94.98
2017-09-08T09:33:26.278Z,95.27
2017-09-08T09:34:26.257Z,95.75
2017-09-08T09:35:26.235Z,95.27
2017-09-08T09:36:26.212Z,95.17
2017-09-08T09:37:26.187Z,95.56
2017-09-08T09:38:26.172Z,95.65
2017-09-08T09:39:26.147Z,95.36
2017-09-08T09:40:26.123Z,95.98
2017-09-08T09:41:26.157Z,96.08
2017-09-08T09:42:26.140Z,96.47
2017-09-08T09:43:26.066Z,96.08
2017-09-08T09:44:26.198Z,96.56
2017-09-08T09:45:26.027Z,96.47
2017-09-08T09:46:26.005Z,96.66
2017-09-08T09:47:26.127Z,96.99
2017-09-08T09:48:25.955Z,96.7
2017-09-08T09:49:25.947Z,96.94
2017-09-08T09:50:26.063Z,96.99
2017-09-08T09:51:25.992Z,97.28
2017-09-08T09:52:25.875Z,97.18
2017-09-08T09:53:25.851Z,96.99
2017-09-08T09:54:25.833Z,96.89
2017-09-08T09:55:25.805Z,97.18
2017-09-08T09:56:25.788Z,97.85
2017-09-08T09:57:25.765Z,97.75
2017-09-08T09:58:25.744Z,97.56
2017-09-08T09:59:25.928Z,97.71
2017-09-08T10:00:25.701Z,97.56
2017-09-08T10:01:25.678Z,98.14
2017-09-08T10:02:25.867Z,97.75
2017-09-08T10:03:25.636Z,97.85
2017-09-08T10:04:25.931Z,98.04
2017-09-08T10:05:25.593Z,97.75
2017-09-08T10:06:25.574Z,97.66
2017-09-08T10:07:25.556Z,97.75
2017-09-08T10:08:25.534Z,98.14
2017-09-08T10:09:25.508Z,98.24
2017-09-08T10:10:25.638Z,98.61
2017-09-08T10:11:25.465Z,98.43
2017-09-08T10:12:25.544Z,98.33
2017-09-08T10:13:25.580Z,98.43
2017-09-08T10:14:25.403Z,98.71
2017-09-08T10:15:25.536Z,99
2017-09-08T10:16:25.049Z,99
2017-09-08T10:17:25.339Z,99.1
2017-09-08T10:18:25.361Z,98.9
2017-09-08T10:19:25.290Z,99.1
2017-09-08T10:20:25.273Z,99.1
2017-09-08T10:21:24.940Z,99.57
2017-09-08T10:22:25.427Z,99.48
2017-09-08T10:23:25.259Z,99.86
2017-09-08T10:24:25.184Z,99.29
2017-09-08T10:25:25.163Z,99.29
2017-09-08T10:26:25.297Z,99.48
2017-09-08T10:27:25.131Z,99.57
2017-09-08T10:28:25.097Z,99.76
2017-09-08T10:29:25.077Z,99.86
2017-09-08T10:30:25.056Z,99.96
2017-09-08T10:31:25.031Z,99.57
2017-09-08T10:32:25.008Z,99.76
2017-09-08T10:33:24.989Z,99.99
2017-09-08T10:34:24.972Z,99.86
2017-09-08T10:35:24.949Z,99.99
2017-09-08T10:36:24.975Z,99.86
2017-09-08T10:37:24.900Z,99.99
2017-09-08T10:38:24.931Z,99.99
2017-09-08T10:39:24.862Z,99.19
2017-09-08T10:40:24.844Z,99.99
2017-09-08T10:41:24.822Z,99.99
2017-09-08T10:42:24.899Z,99.99
2017-09-08T10:43:24.778Z,99.91
2017-09-08T10:44:24.766Z,99.81
2017-09-08T10:45:24.733Z,99.91
2017-09-08T10:46:24.405Z,99.81
2017-09-08T10:47:24.690Z,99.99
2017-09-08T10:48:24.817Z,99.99
2017-09-08T10:49:24.653Z,99.99
2017-09-08T10:50:24.628Z,99.99
2017-09-08T10:51:24.653Z,99.99
2017-09-08T10:52:24.585Z,99.99
2017-09-08T10:53:24.559Z,99.99
2017-09-08T10:54:24.544Z,99.99
2017-09-08T10:55:24.523Z,99.99
2017-09-08T10:56:24.496Z,99.99
2017-09-08T10:57:24.630Z,99.99
2017-09-08T10:58:24.458Z,99.99
2017-09-08T10:59:24.431Z,99.91
2017-09-08T11:00:24.412Z,99.99
2017-09-08T11:01:24.391Z,99.99
2017-09-08T11:02:24.372Z,99.99
2017-09-08T11:03:24.445Z,99.99
2017-09-08T11:04:24.490Z,99.99
2017-09-08T11:05:24.354Z,99.99
2017-09-08T11:06:24.125Z,99.99
2017-09-08T11:07:24.262Z,99.99
2017-09-08T11:08:24.288Z,99.62
2017-09-08T11:09:24.224Z,99.99
2017-09-08T11:10:24.204Z,99.99
2017-09-08T11:11:23.871Z,99.99
2017-09-08T11:12:24.155Z,99.99
2017-09-08T11:13:24.137Z,99.91
2017-09-08T11:14:24.219Z,99.81
2017-09-08T11:15:24.396Z,99.99
2017-09-08T11:16:24.075Z,99.81
2017-09-08T11:17:24.051Z,99.81
2017-09-08T11:18:24.134Z,99.99
2017-09-08T11:19:24.016Z,99.99
2017-09-08T11:20:23.987Z,99.99
2017-09-08T11:21:23.969Z,99.99
2017-09-08T11:22:23.946Z,99.99
2017-09-08T11:23:23.924Z,99.99
2017-09-08T11:24:23.899Z,99.81
2017-09-08T11:25:24.130Z,99.99
2017-09-08T11:26:23.910Z,99.99
2017-09-08T11:27:23.837Z,99.99
2017-09-08T11:28:23.814Z,99.99
2017-09-08T11:29:23.794Z,99.99
2017-09-08T11:30:23.823Z,99.99
2017-09-08T11:31:23.593Z,99.99
2017-09-08T11:32:23.424Z,99.99
2017-09-08T11:33:23.705Z,99.99
2017-09-08T11:34:23.740Z,99.99
2017-09-08T11:35:23.917Z,99.99
2017-09-08T11:36:23.853Z,99.99
2017-09-08T11:37:23.624Z,99.99
2017-09-08T11:38:23.604Z,99.99
2017-09-08T11:39:23.580Z,99.99
2017-09-08T11:40:23.567Z,99.99
2017-09-08T11:41:23.538Z,99.99
2017-09-08T11:42:23.513Z,99.99
2017-09-08T11:43:23.498Z,99.99
2017-09-08T11:44:23.471Z,99.99
2017-09-08T11:45:23.450Z,99.99
2017-09-08T11:46:23.430Z,99.99
2017-09-08T11:47:23.405Z,99.99
2017-09-08T11:48:23.387Z,99.99
2017-09-08T11:49:23.365Z,99.99
2017-09-08T11:50:23.493Z,99.99
2017-09-08T11:51:23.418Z,99.99
2017-09-08T11:52:23.296Z,99.99
2017-09-08T11:53:23.281Z,99.99
2017-09-08T11:54:23.514Z,99.99
2017-09-08T11:55:23.233Z,99.99
2017-09-08T11:56:23.216Z,99.99
2017-09-08T11:57:23.194Z,99.99
2017-09-08T11:58:23.171Z,99.99
2017-09-08T11:59:23.149Z,99.99
2017-09-08T12:00:23.132Z,99.99
2017-09-08T12:01:22.800Z,99.99
2017-09-08T12:02:23.086Z,99.99
2017-09-08T12:03:23.064Z,99.99
2017-09-08T12:04:23.044Z,99.99
2017-09-08T12:05:23.223Z,99.99
2017-09-08T12:06:23.000Z,99.99
2017-09-08T12:07:22.984Z,99.99
2017-09-08T12:08:22.963Z,99.99
2017-09-08T12:09:22.936Z,99.99
2017-09-08T12:10:23.019Z,99.99
2017-09-08T12:11:22.894Z,99.99
2017-09-08T12:12:22.564Z,99.99
2017-09-08T12:13:22.845Z,99.99
2017-09-08T12:14:22.932Z,99.99
2017-09-08T12:15:22.803Z,99.99
2017-09-08T12:16:22.792Z,99.99
2017-09-08T12:17:22.871Z,99.99
2017-09-08T12:18:22.745Z,99.99
2017-09-08T12:19:22.719Z,99.99
2017-09-08T12:20:22.391Z,99.99
2017-09-08T12:21:22.672Z,99.99
2017-09-08T12:22:22.656Z,99.99
2017-09-08T12:23:22.637Z,99.99
2017-09-08T12:24:22.652Z,99.99
2017-09-08T12:25:22.430Z,99.99
2017-09-08T12:26:22.565Z,99.99
2017-09-08T12:27:22.560Z,99.99
2017-09-08T12:28:22.596Z,99.99
2017-09-08T12:29:22.248Z,99.99
2017-09-08T12:30:22.684Z,99.99
2017-09-08T12:31:22.274Z,99.99
2017-09-08T12:32:22.547Z,99.99
2017-09-08T12:33:22.521Z,99.99
2017-09-08T12:34:22.595Z,99.99
2017-09-08T12:35:22.378Z,99.99
2017-09-08T12:36:22.353Z,99.99
2017-09-08T12:37:22.337Z,99.99
2017-09-08T12:38:22.311Z,99.99
2017-09-08T12:39:22.339Z,99.99
2017-09-08T12:40:22.266Z,99.99
2017-09-08T12:41:22.243Z,99.99
2017-09-08T12:42:22.249Z,99.99
2017-09-08T12:43:22.205Z,99.99
2017-09-08T12:44:22.338Z,99.99
2017-09-08T12:45:22.162Z,99.99
2017-09-08T12:46:22.140Z,99.99
2017-09-08T12:47:22.125Z,99.99
2017-09-08T12:48:22.154Z,99.99
2017-09-08T12:49:22.134Z,99.99
2017-09-08T12:50:22.058Z,99.99
2017-09-08T12:51:22.185Z,99.99
2017-09-08T12:52:22.012Z,99.99
2017-09-08T12:53:21.990Z,99.99
2017-09-08T12:54:22.014Z,99.99